createdAt,value
2022-12-29T00:00:40.445Z,9.48
2022-12-29T00:01:58.360Z,9.46
2022-12-29T00:03:02.646Z,9.45
2022-12-29T00:04:11.459Z,9.45
2022-12-29T00:05:18.036Z,9.44
2022-12-29T00:06:21.250Z,9.44
2022-12-29T00:07:24.586Z,9.45
2022-12-29T00:08:40.902Z,9.44
2022-12-29T00:09:44.362Z,9.41
2022-12-29T00:10:47.574Z,9.40
2022-12-29T00:11:51.332Z,9.39
2022-12-29T00:13:14.673Z,9.38
2022-12-29T00:14:36.614Z,9.37
2022-12-29T00:15:40.161Z,9.36
2022-12-29T00:16:46.204Z,9.35
2022-12-29T00:17:49.656Z,9.34
2022-12-29T00:18:53.036Z,9.34
2022-12-29T00:20:14.924Z,9.34
2022-12-29T00:21:38.695Z,9.34
2022-12-29T00:23:00.045Z,9.33
2022-12-29T00:24:21.831Z,9.33
2022-12-29T00:25:43.664Z,9.34
2022-12-29T00:27:28.003Z,9.31
2022-12-29T00:28:50.103Z,9.31
2022-12-29T00:30:12.725Z,9.32
2022-12-29T00:31:35.817Z,9.33
2022-12-29T00:32:59.427Z,9.33
2022-12-29T00:34:21.502Z,9.35
2022-12-29T00:35:34.041Z,9.34
2022-12-29T00:36:41.771Z,9.33
2022-12-29T00:38:07.389Z,9.33
2022-12-29T00:39:36.415Z,9.32
2022-12-29T00:40:59.812Z,9.32
2022-12-29T00:42:26.768Z,9.32
2022-12-29T00:43:48.598Z,9.31
2022-12-29T00:44:51.767Z,9.29
2022-12-29T00:45:55.257Z,9.30
2022-12-29T00:46:58.423Z,9.29
2022-12-29T00:48:01.955Z,9.29
2022-12-29T00:49:24.886Z,9.29
2022-12-29T00:50:27.976Z,9.28
2022-12-29T00:51:31.465Z,9.28
2022-12-29T00:52:34.727Z,9.28
2022-12-29T00:53:37.780Z,9.27
2022-12-29T00:54:42.562Z,9.28
2022-12-29T00:55:45.709Z,9.28
2022-12-29T00:56:50.531Z,9.28
2022-12-29T00:57:53.805Z,9.26
2022-12-29T00:59:00.520Z,9.27
2022-12-29T01:00:05.574Z,9.28
2022-12-29T01:01:10.074Z,9.26
2022-12-29T01:02:13.758Z,9.24
2022-12-29T01:03:17.041Z,9.22
2022-12-29T01:04:22.868Z,9.22
2022-12-29T01:05:26.009Z,9.21
2022-12-29T01:06:29.168Z,9.21
2022-12-29T01:07:32.690Z,9.20
2022-12-29T01:08:38.814Z,9.21
2022-12-29T01:10:00.687Z,9.21
2022-12-29T01:11:12.533Z,9.23
2022-12-29T01:12:15.606Z,9.22
2022-12-29T01:13:18.810Z,9.22
2022-12-29T01:14:22.893Z,9.22
2022-12-29T01:15:25.978Z,9.22
2022-12-29T01:16:29.156Z,9.22
2022-12-29T01:17:32.331Z,9.23
2022-12-29T01:18:35.893Z,9.24
2022-12-29T01:19:39.146Z,9.23
2022-12-29T01:20:42.335Z,9.22
2022-12-29T01:21:46.381Z,9.20
2022-12-29T01:22:49.589Z,9.18
2022-12-29T01:23:56.521Z,9.18
2022-12-29T01:24:59.949Z,9.19
2022-12-29T01:26:11.114Z,9.18
2022-12-29T01:27:14.303Z,9.17
2022-12-29T01:28:23.944Z,9.17
2022-12-29T01:29:29.401Z,9.17
2022-12-29T01:30:35.614Z,9.18
2022-12-29T01:31:39.082Z,9.18
2022-12-29T01:32:42.301Z,9.17
2022-12-29T01:33:47.613Z,9.18
2022-12-29T01:34:51.175Z,9.18
2022-12-29T01:35:54.247Z,9.16
2022-12-29T01:36:57.614Z,9.16
2022-12-29T01:38:01.889Z,9.16
2022-12-29T01:39:05.218Z,9.16
2022-12-29T01:40:09.104Z,9.15
2022-12-29T01:41:15.019Z,9.16
2022-12-29T01:42:20.212Z,9.16
2022-12-29T01:43:49.827Z,9.16
2022-12-29T01:44:58.839Z,9.13
2022-12-29T01:46:02.864Z,9.12
2022-12-29T01:47:08.788Z,9.12
2022-12-29T01:48:13.868Z,9.12
2022-12-29T01:49:28.256Z,9.12
2022-12-29T01:50:37.011Z,9.12
2022-12-29T01:51:46.296Z,9.12
2022-12-29T01:53:02.953Z,9.11
2022-12-29T01:54:14.976Z,9.12
2022-12-29T01:55:19.034Z,9.10
2022-12-29T01:56:23.127Z,9.10
2022-12-29T01:57:31.098Z,9.09
2022-12-29T01:58:41.227Z,9.09
2022-12-29T01:59:54.076Z,9.08
2022-12-29T02:00:57.327Z,9.06
2022-12-29T02:02:01.816Z,9.05
2022-12-29T02:03:07.850Z,9.04
2022-12-29T02:04:14.178Z,9.05
2022-12-29T02:05:21.136Z,9.05
2022-12-29T02:06:40.935Z,9.05
2022-12-29T02:07:44.859Z,9.08
2022-12-29T02:08:48.622Z,9.08
2022-12-29T02:09:54.467Z,9.08
2022-12-29T02:10:59.239Z,9.08
2022-12-29T02:12:03.449Z,9.07
2022-12-29T02:13:06.627Z,9.05
2022-12-29T02:14:14.872Z,9.04
2022-12-29T02:15:18.489Z,9.04
2022-12-29T02:16:37.228Z,9.04
2022-12-29T02:18:14.012Z,9.03
2022-12-29T02:19:48.424Z,9.01
2022-12-29T02:21:28.615Z,9.00
2022-12-29T02:23:09.782Z,9.01
2022-12-29T02:24:36.964Z,9.00
2022-12-29T02:25:45.786Z,9.01
2022-12-29T02:27:19.035Z,9.02
2022-12-29T02:28:53.050Z,9.02
2022-12-29T02:30:02.109Z,9.01
2022-12-29T02:31:43.178Z,9.02
2022-12-29T02:33:11.369Z,9.01
2022-12-29T02:34:25.624Z,9.01
2022-12-29T02:35:34.612Z,9.02
2022-12-29T02:37:06.317Z,9.03
2022-12-29T02:38:23.472Z,9.02
2022-12-29T02:39:35.249Z,9.02
2022-12-29T02:40:57.124Z,9.01
2022-12-29T02:42:41.737Z,9.02
2022-12-29T02:44:15.681Z,9.00
2022-12-29T02:45:31.064Z,9.00
2022-12-29T02:47:03.973Z,9.00
2022-12-29T02:48:39.319Z,9.00
2022-12-29T02:49:58.248Z,8.98
2022-12-29T02:51:05.666Z,8.98
2022-12-29T02:52:17.588Z,8.97
2022-12-29T02:53:42.238Z,8.97
2022-12-29T02:54:45.317Z,8.96
2022-12-29T02:55:53.356Z,8.93
2022-12-29T02:56:56.618Z,8.93
2022-12-29T02:58:23.069Z,8.93
2022-12-29T02:59:26.199Z,8.91
2022-12-29T03:00:29.962Z,8.91
2022-12-29T03:02:05.131Z,8.90
2022-12-29T03:03:36.486Z,8.89
2022-12-29T03:04:51.299Z,8.88
2022-12-29T03:06:00.469Z,8.82
2022-12-29T03:07:33.370Z,8.84
2022-12-29T03:08:59.570Z,8.84
2022-12-29T03:10:13.773Z,8.84
2022-12-29T03:11:36.706Z,8.85
2022-12-29T03:13:24.052Z,8.86
2022-12-29T03:14:52.360Z,8.86
2022-12-29T03:16:11.202Z,8.87
2022-12-29T03:17:28.972Z,8.87
2022-12-29T03:18:50.485Z,8.88
2022-12-29T03:20:02.301Z,8.88
2022-12-29T03:21:49.481Z,8.88
2022-12-29T03:22:58.849Z,8.87
2022-12-29T03:24:03.334Z,8.86
2022-12-29T03:25:14.867Z,8.86
2022-12-29T03:26:20.924Z,8.84
2022-12-29T03:27:31.323Z,8.84
2022-12-29T03:28:59.514Z,8.82
2022-12-29T03:30:05.804Z,8.80
2022-12-29T03:31:11.899Z,8.80
2022-12-29T03:32:17.453Z,8.80
2022-12-29T03:33:25.493Z,8.80
2022-12-29T03:34:29.991Z,8.78
2022-12-29T03:35:38.215Z,8.78
2022-12-29T03:37:00.309Z,8.77
2022-12-29T03:38:18.562Z,8.75
2022-12-29T03:39:24.542Z,8.74
2022-12-29T03:40:29.801Z,8.74
2022-12-29T03:41:34.502Z,8.74
2022-12-29T03:42:41.088Z,8.74
2022-12-29T03:43:44.525Z,8.74
2022-12-29T03:44:48.382Z,8.74
2022-12-29T03:45:52.141Z,8.73
2022-12-29T03:46:55.233Z,8.73
2022-12-29T03:47:58.329Z,8.72
2022-12-29T03:49:02.802Z,8.72
2022-12-29T03:50:06.942Z,8.71
2022-12-29T03:51:11.492Z,8.70
2022-12-29T03:52:14.747Z,8.71
2022-12-29T03:53:20.124Z,8.71
2022-12-29T03:54:23.810Z,8.70
2022-12-29T03:55:26.949Z,8.69
2022-12-29T03:56:30.405Z,8.68
2022-12-29T03:57:34.861Z,8.68
2022-12-29T03:58:41.628Z,8.68
2022-12-29T03:59:47.835Z,8.67
2022-12-29T04:00:50.961Z,8.67
2022-12-29T04:01:54.891Z,8.66
2022-12-29T04:02:58.518Z,8.66
2022-12-29T04:04:01.845Z,8.64
2022-12-29T04:05:05.899Z,8.66
2022-12-29T04:06:09.312Z,8.64
2022-12-29T04:07:17.520Z,8.64
2022-12-29T04:08:21.451Z,8.65
2022-12-29T04:09:25.220Z,8.66
2022-12-29T04:10:29.362Z,8.67
2022-12-29T04:11:35.305Z,8.68
2022-12-29T04:12:41.243Z,8.68
2022-12-29T04:13:44.316Z,8.69
2022-12-29T04:15:00.097Z,8.67
2022-12-29T04:16:03.879Z,8.66
2022-12-29T04:17:07.510Z,8.66
2022-12-29T04:18:10.942Z,8.66
2022-12-29T04:19:15.194Z,8.66
2022-12-29T04:20:37.672Z,8.66
2022-12-29T04:21:43.517Z,8.65
2022-12-29T04:22:46.524Z,8.65
2022-12-29T04:23:49.946Z,8.65
2022-12-29T04:24:53.909Z,8.66
2022-12-29T04:25:58.304Z,8.65
2022-12-29T04:27:04.557Z,8.66
2022-12-29T04:28:08.978Z,8.64
2022-12-29T04:29:24.323Z,8.65
2022-12-29T04:31:00.267Z,8.61
2022-12-29T04:32:11.650Z,8.60
2022-12-29T04:33:20.672Z,8.60
2022-12-29T04:34:24.323Z,8.63
2022-12-29T04:35:27.426Z,8.62
2022-12-29T04:36:30.795Z,8.62
2022-12-29T04:37:34.195Z,8.62
2022-12-29T04:38:37.323Z,8.62
2022-12-29T04:39:41.567Z,8.62
2022-12-29T04:40:45.713Z,8.62
2022-12-29T04:41:49.403Z,8.62
2022-12-29T04:42:56.096Z,8.63
2022-12-29T04:43:59.913Z,8.61
2022-12-29T04:45:06.842Z,8.62
2022-12-29T04:46:14.235Z,8.62
2022-12-29T04:47:38.922Z,8.61
2022-12-29T04:49:05.611Z,8.60
2022-12-29T04:50:29.390Z,8.61
2022-12-29T04:51:46.891Z,8.61
2022-12-29T04:52:51.884Z,8.63
2022-12-29T04:53:54.983Z,8.65
2022-12-29T04:54:59.864Z,8.66
2022-12-29T04:56:03.442Z,8.68
2022-12-29T04:57:06.561Z,8.67
2022-12-29T04:58:11.137Z,8.66
2022-12-29T04:59:14.478Z,8.65
2022-12-29T05:00:18.687Z,8.66
2022-12-29T05:01:22.169Z,8.67
2022-12-29T05:02:25.861Z,8.69
2022-12-29T05:03:30.313Z,8.70
2022-12-29T05:04:33.437Z,8.70
2022-12-29T05:05:37.122Z,8.71
2022-12-29T05:06:40.145Z,8.73
2022-12-29T05:07:44.043Z,8.74
2022-12-29T05:08:47.415Z,8.74
2022-12-29T05:09:51.431Z,8.74
2022-12-29T05:10:54.590Z,8.79
2022-12-29T05:11:57.663Z,8.81
2022-12-29T05:13:01.047Z,8.80
2022-12-29T05:14:04.811Z,8.81
2022-12-29T05:15:12.404Z,8.80
2022-12-29T05:16:15.678Z,8.77
2022-12-29T05:18:15.438Z,8.74
2022-12-29T05:19:20.054Z,8.74
2022-12-29T05:20:23.466Z,8.77
2022-12-29T05:21:27.167Z,8.79
2022-12-29T05:22:31.526Z,8.80
2022-12-29T05:23:34.967Z,8.82
2022-12-29T05:24:42.429Z,8.84
2022-12-29T05:25:48.665Z,8.83
2022-12-29T05:27:05.478Z,8.84
2022-12-29T05:28:23.017Z,8.88
2022-12-29T05:29:30.821Z,8.88
2022-12-29T05:30:34.757Z,8.90
2022-12-29T05:31:38.044Z,8.92
2022-12-29T05:32:42.530Z,8.90
2022-12-29T05:33:45.720Z,8.91
2022-12-29T05:34:49.551Z,8.90
2022-12-29T05:35:53.733Z,8.91
2022-12-29T05:36:58.081Z,8.92
2022-12-29T05:38:01.198Z,8.93
2022-12-29T05:39:04.512Z,8.95
2022-12-29T05:40:08.657Z,8.95
2022-12-29T05:41:11.892Z,8.97
2022-12-29T05:42:37.950Z,8.98
2022-12-29T05:44:16.539Z,8.97
2022-12-29T05:45:41.389Z,8.97
2022-12-29T05:47:03.725Z,8.97
2022-12-29T05:48:19.853Z,9.01
2022-12-29T05:49:39.308Z,9.02
2022-12-29T05:51:02.729Z,9.02
2022-12-29T05:52:44.650Z,9.02
2022-12-29T05:53:48.388Z,9.03
2022-12-29T05:54:52.741Z,9.04
2022-12-29T05:55:58.551Z,9.06
2022-12-29T05:57:02.412Z,9.06
2022-12-29T05:58:06.524Z,9.07
2022-12-29T05:59:10.763Z,9.08
2022-12-29T06:00:15.160Z,9.09
2022-12-29T06:01:18.265Z,9.09
2022-12-29T06:02:21.910Z,9.09
2022-12-29T06:03:25.821Z,9.09
2022-12-29T06:04:29.106Z,9.08
2022-12-29T06:05:32.835Z,9.09
2022-12-29T06:06:36.312Z,9.08
2022-12-29T06:07:40.224Z,9.08
2022-12-29T06:08:43.900Z,9.07
2022-12-29T06:09:47.341Z,9.08
2022-12-29T06:10:51.706Z,9.08
2022-12-29T06:11:54.795Z,9.08
2022-12-29T06:12:57.909Z,9.08
2022-12-29T06:14:01.950Z,9.08
2022-12-29T06:15:06.031Z,9.09
2022-12-29T06:16:09.906Z,9.09
2022-12-29T06:17:15.105Z,9.07
2022-12-29T06:18:20.315Z,9.07
2022-12-29T06:19:24.275Z,9.06
2022-12-29T06:20:27.525Z,9.06
2022-12-29T06:21:31.213Z,9.09
2022-12-29T06:22:38.178Z,9.09
2022-12-29T06:23:41.476Z,9.08
2022-12-29T06:24:45.041Z,9.08
2022-12-29T06:25:49.890Z,9.08
2022-12-29T06:26:53.462Z,9.08
2022-12-29T06:27:57.823Z,9.08
2022-12-29T06:29:01.280Z,9.07
2022-12-29T06:30:05.165Z,9.05
2022-12-29T06:31:12.714Z,9.04
2022-12-29T06:32:17.658Z,9.06
2022-12-29T06:33:25.761Z,9.06
2022-12-29T06:34:29.886Z,9.05
2022-12-29T06:35:33.374Z,9.04
2022-12-29T06:36:36.445Z,9.05
2022-12-29T06:37:39.535Z,9.06
2022-12-29T06:38:43.418Z,9.07
2022-12-29T06:39:46.677Z,9.08
2022-12-29T06:40:51.649Z,9.07
2022-12-29T06:42:13.208Z,9.06
2022-12-29T06:43:39.427Z,9.06
2022-12-29T06:44:59.725Z,9.08
2022-12-29T06:46:03.108Z,9.09
2022-12-29T06:47:06.561Z,9.11
2022-12-29T06:48:09.760Z,9.10
2022-12-29T06:49:12.812Z,9.10
2022-12-29T06:50:16.101Z,9.13
2022-12-29T06:51:19.658Z,9.15
2022-12-29T06:52:25.177Z,9.14
2022-12-29T06:53:28.683Z,9.12
2022-12-29T06:54:32.562Z,9.13
2022-12-29T06:55:35.737Z,9.14
2022-12-29T06:56:39.136Z,9.15
2022-12-29T06:57:42.212Z,9.15
2022-12-29T06:58:45.309Z,9.17
2022-12-29T06:59:48.588Z,9.17
2022-12-29T07:00:51.962Z,9.16
2022-12-29T07:01:55.653Z,9.16
2022-12-29T07:03:01.703Z,9.15
2022-12-29T07:04:06.937Z,9.15
2022-12-29T07:05:11.575Z,9.14
2022-12-29T07:06:15.069Z,9.13
2022-12-29T07:07:22.679Z,9.16
2022-12-29T07:08:26.199Z,9.16
2022-12-29T07:09:29.614Z,9.17
2022-12-29T07:10:32.972Z,9.19
2022-12-29T07:11:36.769Z,9.20
2022-12-29T07:12:40.144Z,9.20
2022-12-29T07:13:43.223Z,9.23
2022-12-29T07:14:46.483Z,9.24
2022-12-29T07:15:49.724Z,9.22
2022-12-29T07:16:53.373Z,9.21
2022-12-29T07:17:57.187Z,9.21
2022-12-29T07:19:00.829Z,9.24
2022-12-29T07:20:04.553Z,9.25
2022-12-29T07:21:07.829Z,9.24
2022-12-29T07:22:11.031Z,9.25
2022-12-29T07:23:14.848Z,9.25
2022-12-29T07:24:18.046Z,9.25
2022-12-29T07:25:21.247Z,9.26
2022-12-29T07:26:24.528Z,9.24
2022-12-29T07:27:27.683Z,9.25
2022-12-29T07:28:31.309Z,9.27
2022-12-29T07:29:34.925Z,9.29
2022-12-29T07:30:39.545Z,9.30
2022-12-29T07:31:42.754Z,9.32
2022-12-29T07:32:45.757Z,9.32
2022-12-29T07:33:50.026Z,9.34
2022-12-29T07:34:53.643Z,9.35
2022-12-29T07:35:57.315Z,9.34
2022-12-29T07:37:00.340Z,9.36
2022-12-29T07:38:03.499Z,9.37
2022-12-29T07:39:06.783Z,9.37
2022-12-29T07:40:11.599Z,9.39
2022-12-29T07:41:14.887Z,9.39
2022-12-29T07:42:18.098Z,9.40
2022-12-29T07:43:27.578Z,9.41
2022-12-29T07:45:00.798Z,9.42
2022-12-29T07:46:55.971Z,9.42
2022-12-29T07:47:51.031Z,9.43
2022-12-29T07:48:54.229Z,9.44
2022-12-29T07:49:57.450Z,9.46
2022-12-29T07:51:00.778Z,9.49
2022-12-29T07:52:04.052Z,9.49
2022-12-29T07:53:07.133Z,9.50
2022-12-29T07:54:10.668Z,9.49
2022-12-29T07:55:13.978Z,9.50
2022-12-29T07:56:17.712Z,9.50
2022-12-29T07:57:23.912Z,9.53
2022-12-29T07:58:31.522Z,9.53
2022-12-29T07:59:34.722Z,9.55
2022-12-29T08:00:39.940Z,9.55
2022-12-29T08:01:43.841Z,9.55
2022-12-29T08:02:47.147Z,9.53
2022-12-29T08:03:56.871Z,9.54
2022-12-29T08:05:00.365Z,9.55
2022-12-29T08:06:03.898Z,9.56
2022-12-29T08:07:07.376Z,9.57
2022-12-29T08:08:10.434Z,9.58
2022-12-29T08:09:21.492Z,9.60
2022-12-29T08:10:25.941Z,9.61
2022-12-29T08:11:28.981Z,9.62
2022-12-29T08:12:32.316Z,9.62
2022-12-29T08:13:35.408Z,9.63
2022-12-29T08:14:38.486Z,9.65
2022-12-29T08:15:41.951Z,9.65
2022-12-29T08:16:44.982Z,9.68
2022-12-29T08:17:48.365Z,9.70
2022-12-29T08:18:51.594Z,9.70
2022-12-29T08:19:54.565Z,9.71
2022-12-29T08:21:03.029Z,9.73
2022-12-29T08:22:06.046Z,9.73
2022-12-29T08:23:09.772Z,9.73
2022-12-29T08:24:12.827Z,9.74
2022-12-29T08:25:16.017Z,9.74
2022-12-29T08:26:19.264Z,9.75
2022-12-29T08:27:23.709Z,9.74
2022-12-29T08:28:28.108Z,9.75
2022-12-29T08:29:31.200Z,9.76
2022-12-29T08:30:34.547Z,9.76
2022-12-29T08:31:37.865Z,9.73
2022-12-29T08:32:40.855Z,9.74
2022-12-29T08:33:44.267Z,9.76
2022-12-29T08:34:47.694Z,9.76
2022-12-29T08:35:50.668Z,9.77
2022-12-29T08:36:53.813Z,9.79
2022-12-29T08:37:57.021Z,9.79
2022-12-29T08:39:00.512Z,9.79
2022-12-29T08:40:05.041Z,9.81
2022-12-29T08:41:08.077Z,9.81
2022-12-29T08:42:11.060Z,9.82
2022-12-29T08:43:18.474Z,9.81
2022-12-29T08:44:22.869Z,9.81
2022-12-29T08:45:25.963Z,9.84
2022-12-29T08:46:32.400Z,9.85
2022-12-29T08:47:35.597Z,9.87
2022-12-29T08:48:38.874Z,9.87
2022-12-29T08:49:42.163Z,9.87
2022-12-29T08:50:45.754Z,9.88
2022-12-29T08:51:48.839Z,9.89
2022-12-29T08:52:51.867Z,9.91
2022-12-29T08:53:54.921Z,9.93
2022-12-29T08:54:58.751Z,9.95
2022-12-29T08:56:05.359Z,9.96
2022-12-29T08:57:15.486Z,9.95
2022-12-29T08:58:30.621Z,9.95
2022-12-29T08:59:33.688Z,9.94
2022-12-29T09:00:37.111Z,9.94
2022-12-29T09:01:41.995Z,9.94
2022-12-29T09:02:45.250Z,9.96
2022-12-29T09:05:12.166Z,9.96
2022-12-29T09:06:18.498Z,9.99
2022-12-29T09:07:21.641Z,10.00
2022-12-29T09:08:26.106Z,10.00
2022-12-29T09:09:29.567Z,10.00
2022-12-29T09:10:32.955Z,9.99
2022-12-29T09:11:36.674Z,10.02
2022-12-29T09:12:39.787Z,10.03
2022-12-29T09:13:43.040Z,10.05
2022-12-29T09:14:49.196Z,10.04
2022-12-29T09:16:01.000Z,10.01
2022-12-29T09:17:24.554Z,9.99
2022-12-29T09:18:27.830Z,10.01
2022-12-29T09:19:32.125Z,10.04
2022-12-29T09:20:35.523Z,10.07
2022-12-29T09:21:38.902Z,10.08
2022-12-29T09:22:42.622Z,10.09
2022-12-29T09:23:45.886Z,10.08
2022-12-29T09:24:49.058Z,10.09
2022-12-29T09:25:53.151Z,10.08
2022-12-29T09:26:56.125Z,10.11
2022-12-29T09:27:59.595Z,10.13
2022-12-29T09:29:02.701Z,10.12
2022-12-29T09:30:09.549Z,10.11
2022-12-29T09:31:13.205Z,10.12
2022-12-29T09:32:18.733Z,10.14
2022-12-29T09:33:23.091Z,10.15
2022-12-29T09:34:26.092Z,10.16
2022-12-29T09:35:29.200Z,10.17
2022-12-29T09:36:32.162Z,10.18
2022-12-29T09:37:35.203Z,10.21
2022-12-29T09:38:38.535Z,10.24
2022-12-29T09:39:42.686Z,10.25
2022-12-29T09:40:50.942Z,10.25
2022-12-29T09:42:09.850Z,10.28
2022-12-29T09:43:18.776Z,10.32
2022-12-29T09:44:42.318Z,10.34
2022-12-29T09:45:48.987Z,10.37
2022-12-29T09:46:55.772Z,10.39
2022-12-29T09:48:00.257Z,10.39
2022-12-29T09:49:07.930Z,10.42
2022-12-29T09:50:36.512Z,10.42
2022-12-29T09:51:42.847Z,10.48
2022-12-29T09:52:52.619Z,10.51
2022-12-29T09:54:05.959Z,10.54
2022-12-29T09:55:16.815Z,10.57
2022-12-29T09:56:23.226Z,10.57
2022-12-29T09:57:42.216Z,10.60
2022-12-29T09:58:53.340Z,10.62
2022-12-29T10:00:21.127Z,10.63
2022-12-29T10:01:33.481Z,10.64
2022-12-29T10:02:47.765Z,10.63
2022-12-29T10:03:54.367Z,10.65
2022-12-29T10:04:57.409Z,10.67
2022-12-29T10:06:15.853Z,10.68
2022-12-29T10:07:40.788Z,10.70
2022-12-29T10:08:50.407Z,10.73
2022-12-29T10:10:26.054Z,10.73
2022-12-29T10:11:47.958Z,10.75
2022-12-29T10:13:14.328Z,10.75
2022-12-29T10:14:48.535Z,10.79
2022-12-29T10:16:06.500Z,10.79
2022-12-29T10:17:35.362Z,10.79
2022-12-29T10:18:52.233Z,10.81
2022-12-29T10:20:04.942Z,10.81
2022-12-29T10:21:31.024Z,10.82
2022-12-29T10:23:03.174Z,10.83
2022-12-29T10:24:13.947Z,10.80
2022-12-29T10:25:20.299Z,10.83
2022-12-29T10:26:29.464Z,10.82
2022-12-29T10:27:35.934Z,10.85
2022-12-29T10:28:44.713Z,10.87
2022-12-29T10:29:53.174Z,10.90
2022-12-29T10:31:05.106Z,10.93
2022-12-29T10:32:39.646Z,10.93
2022-12-29T10:33:43.801Z,10.95
2022-12-29T10:34:55.300Z,10.98
2022-12-29T10:35:59.288Z,11.02
2022-12-29T10:37:11.644Z,11.04
2022-12-29T10:38:30.012Z,11.08
2022-12-29T10:39:49.328Z,11.11
2022-12-29T10:41:06.484Z,11.14
2022-12-29T10:42:34.258Z,11.17
2022-12-29T10:43:46.590Z,11.21
2022-12-29T10:44:50.290Z,11.23
2022-12-29T10:45:57.399Z,11.25
2022-12-29T10:47:05.830Z,11.28
2022-12-29T10:48:20.328Z,11.26
2022-12-29T10:49:26.177Z,11.28
2022-12-29T10:50:30.968Z,11.31
2022-12-29T10:51:39.467Z,11.34
2022-12-29T10:52:42.572Z,11.35
2022-12-29T10:54:15.347Z,11.35
2022-12-29T10:55:28.976Z,11.37
2022-12-29T10:56:35.012Z,11.39
2022-12-29T10:57:42.509Z,11.42
2022-12-29T10:58:50.131Z,11.45
2022-12-29T10:59:53.415Z,11.46
2022-12-29T11:00:56.680Z,11.45
2022-12-29T11:02:17.701Z,11.45
2022-12-29T11:03:42.389Z,11.48
2022-12-29T11:04:54.491Z,11.46
2022-12-29T11:06:07.625Z,11.45
2022-12-29T11:07:16.100Z,11.44
2022-12-29T11:08:32.316Z,11.42
2022-12-29T11:09:42.575Z,11.40
2022-12-29T11:10:47.426Z,11.41
2022-12-29T11:11:50.583Z,11.41
2022-12-29T11:13:16.457Z,11.41
2022-12-29T11:14:22.266Z,11.39
2022-12-29T11:15:26.505Z,11.36
2022-12-29T11:16:33.073Z,11.33
2022-12-29T11:18:02.378Z,11.32
2022-12-29T11:19:05.869Z,11.33
2022-12-29T11:20:29.439Z,11.36
2022-12-29T11:21:43.043Z,11.36
2022-12-29T11:22:46.620Z,11.34
2022-12-29T11:23:59.144Z,11.35
2022-12-29T11:25:14.113Z,11.34
2022-12-29T11:26:20.396Z,11.33
2022-12-29T11:27:27.273Z,11.32
2022-12-29T11:28:32.970Z,11.31
2022-12-29T11:29:42.514Z,11.32
2022-12-29T11:30:45.753Z,11.32
2022-12-29T11:31:58.526Z,11.32
2022-12-29T11:33:05.027Z,11.34
2022-12-29T11:34:09.342Z,11.35
2022-12-29T11:35:35.298Z,11.34
2022-12-29T11:36:39.728Z,11.34
2022-12-29T11:37:43.555Z,11.35
2022-12-29T11:38:55.656Z,11.38
2022-12-29T11:40:05.364Z,11.40
2022-12-29T11:41:13.709Z,11.39
2022-12-29T11:42:21.096Z,11.38
2022-12-29T11:43:45.277Z,11.37
2022-12-29T11:44:50.382Z,11.34
2022-12-29T11:45:54.913Z,11.34
2022-12-29T11:46:58.379Z,11.36
2022-12-29T11:48:19.004Z,11.37
2022-12-29T11:49:23.690Z,11.37
2022-12-29T11:50:30.482Z,11.36
2022-12-29T11:51:48.578Z,11.37
2022-12-29T11:53:01.090Z,11.38
2022-12-29T11:54:06.177Z,11.40
2022-12-29T11:55:21.922Z,11.41
2022-12-29T11:56:40.500Z,11.43
2022-12-29T11:57:46.133Z,11.43
2022-12-29T11:58:51.630Z,11.45
2022-12-29T11:59:57.130Z,11.48
2022-12-29T12:01:26.369Z,11.49
2022-12-29T12:02:38.787Z,11.49
2022-12-29T12:03:57.491Z,11.48
2022-12-29T12:05:10.535Z,11.49
2022-12-29T12:06:20.236Z,11.51
2022-12-29T12:07:42.143Z,11.53
2022-12-29T12:08:50.239Z,11.54
2022-12-29T12:10:05.114Z,11.55
2022-12-29T12:11:37.952Z,11.54
2022-12-29T12:12:47.029Z,11.53
2022-12-29T12:14:10.127Z,11.55
2022-12-29T12:15:56.141Z,11.51
2022-12-29T12:17:10.117Z,11.54
2022-12-29T12:18:33.030Z,11.54
2022-12-29T12:19:41.437Z,11.56
2022-12-29T12:20:55.363Z,11.55
2022-12-29T12:22:27.931Z,11.55
2022-12-29T12:23:53.226Z,11.55
2022-12-29T12:25:15.561Z,11.57
2022-12-29T12:26:54.496Z,11.59
2022-12-29T12:28:36.779Z,11.59
2022-12-29T12:30:04.362Z,11.60
2022-12-29T12:31:18.394Z,11.59
2022-12-29T12:32:43.937Z,11.59
2022-12-29T12:33:56.355Z,11.57
2022-12-29T12:34:59.351Z,11.57
2022-12-29T12:36:15.434Z,11.59
2022-12-29T12:37:30.425Z,11.60
2022-12-29T12:38:58.119Z,11.65
2022-12-29T12:40:17.253Z,11.68
2022-12-29T12:41:35.891Z,11.65
2022-12-29T12:43:17.825Z,11.65
2022-12-29T12:44:42.996Z,11.68
2022-12-29T12:45:54.950Z,11.72
2022-12-29T12:47:08.271Z,11.74
2022-12-29T12:48:14.626Z,11.76
2022-12-29T12:49:27.893Z,11.77
2022-12-29T12:51:05.785Z,11.79
2022-12-29T12:52:29.745Z,11.76
2022-12-29T12:53:48.184Z,11.74
2022-12-29T12:55:10.515Z,11.74
2022-12-29T12:57:01.897Z,11.73
2022-12-29T12:58:13.208Z,11.67
2022-12-29T12:59:42.314Z,11.64
2022-12-29T13:01:04.523Z,11.65
2022-12-29T13:02:25.909Z,11.63
2022-12-29T13:03:47.747Z,11.63
2022-12-29T13:05:00.773Z,11.59
2022-12-29T13:06:31.759Z,11.57
2022-12-29T13:07:53.360Z,11.55
2022-12-29T13:08:59.024Z,11.54
2022-12-29T13:10:22.579Z,11.52
2022-12-29T13:11:47.658Z,11.52
2022-12-29T13:13:19.807Z,11.51
2022-12-29T13:14:45.513Z,11.49
2022-12-29T13:16:01.789Z,11.49
2022-12-29T13:17:04.804Z,11.49
2022-12-29T13:18:35.154Z,11.47
2022-12-29T13:20:00.788Z,11.48
2022-12-29T13:21:15.578Z,11.50
2022-12-29T13:22:42.598Z,11.49
2022-12-29T13:24:14.057Z,11.50
2022-12-29T13:25:28.490Z,11.49
2022-12-29T13:26:43.532Z,11.51
2022-12-29T13:28:06.044Z,11.53
2022-12-29T13:29:21.815Z,11.51
2022-12-29T13:30:35.327Z,11.52
2022-12-29T13:31:52.463Z,11.54
2022-12-29T13:33:27.709Z,11.53
2022-12-29T13:34:59.219Z,11.55
2022-12-29T13:36:14.589Z,11.51
2022-12-29T13:37:21.584Z,11.52
2022-12-29T13:38:34.390Z,11.51
2022-12-29T13:39:44.105Z,11.51
2022-12-29T13:40:52.928Z,11.52
2022-12-29T13:41:57.600Z,11.51
2022-12-29T13:43:02.097Z,11.50
2022-12-29T13:44:06.525Z,11.52
2022-12-29T13:45:25.781Z,11.50
2022-12-29T13:46:43.817Z,11.51
2022-12-29T13:48:00.610Z,11.50
2022-12-29T13:49:12.395Z,11.48
2022-12-29T13:50:20.184Z,11.48
2022-12-29T13:51:28.120Z,11.50
2022-12-29T13:52:53.782Z,11.50
2022-12-29T13:54:16.339Z,11.50
2022-12-29T13:55:46.971Z,11.47
2022-12-29T13:57:18.625Z,11.45
2022-12-29T13:58:47.831Z,11.44
2022-12-29T14:00:27.401Z,11.41
2022-12-29T14:01:44.873Z,11.38
2022-12-29T14:02:48.306Z,11.35
2022-12-29T14:03:54.880Z,11.36
2022-12-29T14:05:03.526Z,11.33
2022-12-29T14:06:18.621Z,11.29
2022-12-29T14:07:21.786Z,11.28
2022-12-29T14:08:24.856Z,11.27
2022-12-29T14:09:47.701Z,11.28
2022-12-29T14:10:52.878Z,11.26
2022-12-29T14:12:00.068Z,11.25
2022-12-29T14:13:10.366Z,11.23
2022-12-29T14:14:30.473Z,11.22
2022-12-29T14:15:34.541Z,11.21
2022-12-29T14:16:37.559Z,11.20
2022-12-29T14:17:41.582Z,11.19
2022-12-29T14:18:45.678Z,11.17
2022-12-29T14:19:54.114Z,11.18
2022-12-29T14:21:08.435Z,11.18
2022-12-29T14:22:13.053Z,11.14
2022-12-29T14:23:28.539Z,11.13
2022-12-29T14:24:37.854Z,11.13
2022-12-29T14:26:05.365Z,11.14
2022-12-29T14:27:11.492Z,11.11
2022-12-29T14:28:25.465Z,11.11
2022-12-29T14:29:31.461Z,11.10
2022-12-29T14:30:56.035Z,11.12
2022-12-29T14:31:59.289Z,11.11
2022-12-29T14:33:12.559Z,11.10
2022-12-29T14:34:16.994Z,11.09
2022-12-29T14:35:40.491Z,11.09
2022-12-29T14:36:56.791Z,11.08
2022-12-29T14:38:08.694Z,11.05
2022-12-29T14:39:30.576Z,11.04
2022-12-29T14:40:34.751Z,11.04
2022-12-29T14:41:40.274Z,11.05
2022-12-29T14:42:44.474Z,11.06
2022-12-29T14:44:16.249Z,11.04
2022-12-29T14:45:19.825Z,11.03
2022-12-29T14:46:23.325Z,11.05
2022-12-29T14:47:29.354Z,11.05
2022-12-29T14:48:43.043Z,11.05
2022-12-29T14:49:46.716Z,11.04
2022-12-29T14:50:49.749Z,11.03
2022-12-29T14:51:56.047Z,11.00
2022-12-29T14:53:04.003Z,10.97
2022-12-29T14:54:32.829Z,10.97
2022-12-29T14:55:59.187Z,10.97
2022-12-29T14:57:05.307Z,10.97
2022-12-29T14:58:19.460Z,10.96
2022-12-29T14:59:25.876Z,10.96
2022-12-29T15:00:33.769Z,10.96
2022-12-29T15:01:51.336Z,10.97
2022-12-29T15:03:07.370Z,10.98
2022-12-29T15:04:36.428Z,10.99
2022-12-29T15:05:47.350Z,10.99
2022-12-29T15:06:51.419Z,11.01
2022-12-29T15:07:57.695Z,11.04
2022-12-29T15:09:31.533Z,11.05
2022-12-29T15:10:43.992Z,11.06
2022-12-29T15:11:54.422Z,11.03
2022-12-29T15:13:06.101Z,11.06
2022-12-29T15:14:32.382Z,11.07
2022-12-29T15:15:39.423Z,11.04
2022-12-29T15:16:42.616Z,11.03
2022-12-29T15:17:46.076Z,11.02
2022-12-29T15:18:49.606Z,10.99
2022-12-29T15:19:53.610Z,10.98
2022-12-29T15:21:02.670Z,10.98
2022-12-29T15:22:10.392Z,10.96
2022-12-29T15:23:17.208Z,10.96
2022-12-29T15:24:20.443Z,10.94
2022-12-29T15:25:24.436Z,10.93
2022-12-29T15:26:43.632Z,10.95
2022-12-29T15:27:54.777Z,10.98
2022-12-29T15:28:58.070Z,11.00